Chipping Ongar, United Kingdom
Current Conditions -  °F | °C
As of 9:50 AM on Sunday 25 Jan 2015 (Local Time) from EGSS Reporting Station
Overcast Overcast  
Wind Chill: -1°   Ceiling: 3200
Heat Index:   Visibility: 6mi
Dew Point:   Wind: 9mph
Humidity: 87%   Direction: 250°WSW
Pressure: 30.42"   Gusts: NA
Location:  51.7°N, 0.25°E
Report Text: EGSS 250950Z 25008KT 9999 OVC032 03/01 Q1030
Loading
Personal Weather Stations






























Interactive Weather Map New forecast layout! Learn more

10-Day Weather Forecast

Advertisements
Track Severe Weather on mobile